sensor_id;sensor_type;location;lat;lon;timestamp;P1;durP1;ratioP1;P2;durP2;ratioP2
77417;SDS011;66490;51.484;0.026;2023-05-08T00:00:43;19.65;;;8.63;;
77417;SDS011;66490;51.484;0.026;2023-05-08T00:03:27;19.60;;;9.25;;
77417;SDS011;66490;51.484;0.026;2023-05-08T00:06:11;18.50;;;9.57;;
77417;SDS011;66490;51.484;0.026;2023-05-08T00:08:55;17.20;;;9.70;;
77417;SDS011;66490;51.484;0.026;2023-05-08T00:11:39;17.40;;;9.23;;
77417;SDS011;66490;51.484;0.026;2023-05-08T00:14:23;17.63;;;9.80;;
77417;SDS011;66490;51.484;0.026;2023-05-08T00:17:07;16.90;;;10.15;;
77417;SDS011;66490;51.484;0.026;2023-05-08T00:19:51;17.25;;;9.82;;
77417;SDS011;66490;51.484;0.026;2023-05-08T00:22:36;18.30;;;10.82;;
77417;SDS011;66490;51.484;0.026;2023-05-08T00:25:20;15.73;;;8.83;;
77417;SDS011;66490;51.484;0.026;2023-05-08T00:28:03;14.70;;;8.63;;
77417;SDS011;66490;51.484;0.026;2023-05-08T00:30:48;19.67;;;9.45;;
77417;SDS011;66490;51.484;0.026;2023-05-08T00:33:32;19.52;;;10.90;;
77417;SDS011;66490;51.484;0.026;2023-05-08T00:36:16;15.50;;;8.95;;
77417;SDS011;66490;51.484;0.026;2023-05-08T00:38:59;18.00;;;9.43;;
77417;SDS011;66490;51.484;0.026;2023-05-08T00:41:43;22.33;;;9.70;;
77417;SDS011;66490;51.484;0.026;2023-05-08T00:44:28;19.48;;;10.00;;
77417;SDS011;66490;51.484;0.026;2023-05-08T00:47:12;18.58;;;9.23;;
77417;SDS011;66490;51.484;0.026;2023-05-08T00:49:58;18.02;;;10.30;;
77417;SDS011;66490;51.484;0.026;2023-05-08T00:52:42;25.47;;;10.13;;
77417;SDS011;66490;51.484;0.026;2023-05-08T00:55:27;19.75;;;9.25;;
77417;SDS011;66490;51.484;0.026;2023-05-08T00:58:12;18.25;;;8.68;;
77417;SDS011;66490;51.484;0.026;2023-05-08T01:00:57;18.92;;;10.10;;
77417;SDS011;66490;51.484;0.026;2023-05-08T01:03:43;20.75;;;9.40;;
77417;SDS011;66490;51.484;0.026;2023-05-08T01:06:27;21.23;;;9.90;;
77417;SDS011;66490;51.484;0.026;2023-05-08T01:09:11;20.05;;;9.15;;
77417;SDS011;66490;51.484;0.026;2023-05-08T01:14:55;24.10;;;10.65;;
77417;SDS011;66490;51.484;0.026;2023-05-08T01:21:48;18.33;;;8.87;;
77417;SDS011;66490;51.484;0.026;2023-05-08T01:24:15;20.95;;;8.68;;
77417;SDS011;66490;51.484;0.026;2023-05-08T01:32:42;16.75;;;9.68;;
77417;SDS011;66490;51.484;0.026;2023-05-08T01:35:31;21.50;;;9.10;;
77417;SDS011;66490;51.484;0.026;2023-05-08T01:38:59;22.58;;;8.48;;
77417;SDS011;66490;51.484;0.026;2023-05-08T01:41:25;19.42;;;8.50;;
77417;SDS011;66490;51.484;0.026;2023-05-08T01:44:18;19.38;;;8.02;;
77417;SDS011;66490;51.484;0.026;2023-05-08T01:47:04;18.90;;;8.98;;
77417;SDS011;66490;51.484;0.026;2023-05-08T01:49:49;17.27;;;8.37;;
77417;SDS011;66490;51.484;0.026;2023-05-08T01:52:45;19.52;;;8.77;;
77417;SDS011;66490;51.484;0.026;2023-05-08T01:55:33;19.95;;;8.68;;
77417;SDS011;66490;51.484;0.026;2023-05-08T01:58:18;20.58;;;9.70;;
77417;SDS011;66490;51.484;0.026;2023-05-08T02:01:03;23.25;;;9.48;;
77417;SDS011;66490;51.484;0.026;2023-05-08T02:03:47;18.53;;;8.23;;
77417;SDS011;66490;51.484;0.026;2023-05-08T02:06:35;21.25;;;9.18;;
77417;SDS011;66490;51.484;0.026;2023-05-08T02:09:20;16.92;;;8.32;;
77417;SDS011;66490;51.484;0.026;2023-05-08T02:12:05;22.25;;;8.88;;
77417;SDS011;66490;51.484;0.026;2023-05-08T02:14:51;18.00;;;8.38;;
77417;SDS011;66490;51.484;0.026;2023-05-08T02:17:36;19.33;;;8.93;;
77417;SDS011;66490;51.484;0.026;2023-05-08T02:20:21;17.27;;;7.60;;
77417;SDS011;66490;51.484;0.026;2023-05-08T02:23:05;29.35;;;10.27;;
77417;SDS011;66490;51.484;0.026;2023-05-08T02:25:50;18.17;;;8.65;;
77417;SDS011;66490;51.484;0.026;2023-05-08T02:28:35;16.25;;;9.32;;
77417;SDS011;66490;51.484;0.026;2023-05-08T02:31:19;20.80;;;9.17;;
77417;SDS011;66490;51.484;0.026;2023-05-08T02:34:04;20.15;;;8.32;;
77417;SDS011;66490;51.484;0.026;2023-05-08T02:36:49;19.05;;;9.00;;
77417;SDS011;66490;51.484;0.026;2023-05-08T02:39:34;17.73;;;8.43;;
77417;SDS011;66490;51.484;0.026;2023-05-08T02:42:18;16.75;;;7.25;;
77417;SDS011;66490;51.484;0.026;2023-05-08T02:45:03;20.23;;;8.97;;
77417;SDS011;66490;51.484;0.026;2023-05-08T02:47:51;17.75;;;8.20;;
77417;SDS011;66490;51.484;0.026;2023-05-08T02:53:44;17.92;;;7.95;;
77417;SDS011;66490;51.484;0.026;2023-05-08T02:56:36;15.98;;;7.57;;
77417;SDS011;66490;51.484;0.026;2023-05-08T02:59:43;16.93;;;8.07;;
77417;SDS011;66490;51.484;0.026;2023-05-08T03:02:32;17.83;;;8.75;;
77417;SDS011;66490;51.484;0.026;2023-05-08T03:05:18;16.67;;;8.00;;
77417;SDS011;66490;51.484;0.026;2023-05-08T03:08:07;22.92;;;8.27;;
77417;SDS011;66490;51.484;0.026;2023-05-08T03:10:54;19.23;;;9.15;;
77417;SDS011;66490;51.484;0.026;2023-05-08T03:13:39;16.00;;;7.43;;
77417;SDS011;66490;51.484;0.026;2023-05-08T03:16:24;17.80;;;7.45;;
77417;SDS011;66490;51.484;0.026;2023-05-08T03:19:29;19.52;;;8.98;;
77417;SDS011;66490;51.484;0.026;2023-05-08T03:22:16;17.80;;;8.13;;
77417;SDS011;66490;51.484;0.026;2023-05-08T03:25:03;22.10;;;8.50;;
77417;SDS011;66490;51.484;0.026;2023-05-08T03:27:48;18.00;;;7.63;;
77417;SDS011;66490;51.484;0.026;2023-05-08T03:30:35;20.83;;;8.20;;
77417;SDS011;66490;51.484;0.026;2023-05-08T03:33:20;15.10;;;7.88;;
77417;SDS011;66490;51.484;0.026;2023-05-08T03:36:04;21.70;;;8.27;;
77417;SDS011;66490;51.484;0.026;2023-05-08T03:38:48;17.98;;;7.60;;
77417;SDS011;66490;51.484;0.026;2023-05-08T03:41:32;17.03;;;8.40;;
77417;SDS011;66490;51.484;0.026;2023-05-08T03:44:16;18.25;;;7.82;;
77417;SDS011;66490;51.484;0.026;2023-05-08T03:47:00;17.30;;;8.43;;
77417;SDS011;66490;51.484;0.026;2023-05-08T03:49:46;16.45;;;6.85;;
77417;SDS011;66490;51.484;0.026;2023-05-08T03:52:31;15.35;;;7.40;;
77417;SDS011;66490;51.484;0.026;2023-05-08T03:55:15;20.23;;;7.23;;
77417;SDS011;66490;51.484;0.026;2023-05-08T04:04:09;14.00;;;6.85;;
77417;SDS011;66490;51.484;0.026;2023-05-08T04:06:57;19.27;;;8.18;;
77417;SDS011;66490;51.484;0.026;2023-05-08T04:12:32;15.05;;;7.30;;
77417;SDS011;66490;51.484;0.026;2023-05-08T04:15:19;16.08;;;7.25;;
77417;SDS011;66490;51.484;0.026;2023-05-08T04:18:11;18.20;;;6.90;;
77417;SDS011;66490;51.484;0.026;2023-05-08T04:20:57;16.42;;;7.80;;
77417;SDS011;66490;51.484;0.026;2023-05-08T04:23:42;16.73;;;7.43;;
77417;SDS011;66490;51.484;0.026;2023-05-08T04:26:26;19.95;;;7.28;;
77417;SDS011;66490;51.484;0.026;2023-05-08T04:29:12;16.95;;;6.97;;
77417;SDS011;66490;51.484;0.026;2023-05-08T04:31:56;16.73;;;6.90;;
77417;SDS011;66490;51.484;0.026;2023-05-08T04:34:41;16.25;;;7.60;;
77417;SDS011;66490;51.484;0.026;2023-05-08T04:37:26;15.00;;;7.13;;
77417;SDS011;66490;51.484;0.026;2023-05-08T04:40:11;15.25;;;7.15;;
77417;SDS011;66490;51.484;0.026;2023-05-08T04:42:55;19.60;;;7.38;;
77417;SDS011;66490;51.484;0.026;2023-05-08T04:45:39;17.05;;;6.70;;
77417;SDS011;66490;51.484;0.026;2023-05-08T04:48:23;14.93;;;7.22;;
77417;SDS011;66490;51.484;0.026;2023-05-08T04:51:08;16.30;;;7.70;;
77417;SDS011;66490;51.484;0.026;2023-05-08T04:53:55;14.68;;;6.07;;
77417;SDS011;66490;51.484;0.026;2023-05-08T04:56:40;15.50;;;5.80;;
77417;SDS011;66490;51.484;0.026;2023-05-08T04:59:25;14.73;;;6.25;;
77417;SDS011;66490;51.484;0.026;2023-05-08T05:02:09;16.08;;;5.97;;
77417;SDS011;66490;51.484;0.026;2023-05-08T05:04:53;13.93;;;6.50;;
77417;SDS011;66490;51.484;0.026;2023-05-08T05:07:37;13.48;;;5.97;;
77417;SDS011;66490;51.484;0.026;2023-05-08T05:10:21;15.43;;;6.53;;
77417;SDS011;66490;51.484;0.026;2023-05-08T05:13:05;14.57;;;5.75;;
77417;SDS011;66490;51.484;0.026;2023-05-08T05:15:49;15.68;;;6.18;;
77417;SDS011;66490;51.484;0.026;2023-05-08T05:18:36;11.73;;;4.97;;
77417;SDS011;66490;51.484;0.026;2023-05-08T05:21:20;14.85;;;5.93;;
77417;SDS011;66490;51.484;0.026;2023-05-08T05:24:05;14.90;;;6.45;;
77417;SDS011;66490;51.484;0.026;2023-05-08T05:26:50;12.30;;;6.10;;
77417;SDS011;66490;51.484;0.026;2023-05-08T05:29:34;14.95;;;6.05;;
77417;SDS011;66490;51.484;0.026;2023-05-08T05:32:18;16.20;;;5.73;;
77417;SDS011;66490;51.484;0.026;2023-05-08T05:35:03;14.80;;;5.25;;
77417;SDS011;66490;51.484;0.026;2023-05-08T05:37:47;17.02;;;6.07;;
77417;SDS011;66490;51.484;0.026;2023-05-08T05:40:31;12.32;;;4.75;;
77417;SDS011;66490;51.484;0.026;2023-05-08T05:43:15;12.02;;;5.15;;
77417;SDS011;66490;51.484;0.026;2023-05-08T05:46:03;12.33;;;4.37;;
77417;SDS011;66490;51.484;0.026;2023-05-08T05:48:47;10.48;;;4.25;;
77417;SDS011;66490;51.484;0.026;2023-05-08T05:51:31;9.57;;;4.45;;
77417;SDS011;66490;51.484;0.026;2023-05-08T05:54:15;11.40;;;4.32;;
77417;SDS011;66490;51.484;0.026;2023-05-08T05:56:59;10.50;;;3.88;;
77417;SDS011;66490;51.484;0.026;2023-05-08T05:59:43;15.73;;;5.03;;
77417;SDS011;66490;51.484;0.026;2023-05-08T06:02:27;11.25;;;4.45;;
77417;SDS011;66490;51.484;0.026;2023-05-08T06:05:11;12.63;;;5.85;;
77417;SDS011;66490;51.484;0.026;2023-05-08T06:07:55;12.05;;;4.32;;
77417;SDS011;66490;51.484;0.026;2023-05-08T06:10:40;11.40;;;3.92;;
77417;SDS011;66490;51.484;0.026;2023-05-08T06:13:24;10.97;;;3.67;;
77417;SDS011;66490;51.484;0.026;2023-05-08T06:16:08;13.02;;;3.75;;
77417;SDS011;66490;51.484;0.026;2023-05-08T06:18:52;12.88;;;4.57;;
77417;SDS011;66490;51.484;0.026;2023-05-08T06:21:36;10.18;;;4.25;;
77417;SDS011;66490;51.484;0.026;2023-05-08T06:24:22;11.07;;;4.07;;
77417;SDS011;66490;51.484;0.026;2023-05-08T06:27:06;11.23;;;3.87;;
77417;SDS011;66490;51.484;0.026;2023-05-08T06:29:50;8.35;;;3.85;;
77417;SDS011;66490;51.484;0.026;2023-05-08T06:32:36;11.05;;;5.18;;
77417;SDS011;66490;51.484;0.026;2023-05-08T06:35:19;13.00;;;5.13;;
77417;SDS011;66490;51.484;0.026;2023-05-08T06:38:03;10.32;;;4.53;;
77417;SDS011;66490;51.484;0.026;2023-05-08T06:40:48;10.50;;;4.63;;
77417;SDS011;66490;51.484;0.026;2023-05-08T06:43:33;11.63;;;4.82;;
77417;SDS011;66490;51.484;0.026;2023-05-08T06:46:17;9.50;;;4.55;;
77417;SDS011;66490;51.484;0.026;2023-05-08T06:49:01;10.57;;;4.50;;
77417;SDS011;66490;51.484;0.026;2023-05-08T06:51:47;10.52;;;4.57;;
77417;SDS011;66490;51.484;0.026;2023-05-08T06:54:31;11.30;;;3.20;;
77417;SDS011;66490;51.484;0.026;2023-05-08T06:57:15;10.45;;;4.50;;
77417;SDS011;66490;51.484;0.026;2023-05-08T07:00:03;7.53;;;3.70;;
77417;SDS011;66490;51.484;0.026;2023-05-08T07:02:50;8.60;;;3.92;;
77417;SDS011;66490;51.484;0.026;2023-05-08T07:05:37;7.20;;;3.25;;
77417;SDS011;66490;51.484;0.026;2023-05-08T07:08:23;8.50;;;2.87;;
77417;SDS011;66490;51.484;0.026;2023-05-08T07:11:07;8.75;;;2.90;;
77417;SDS011;66490;51.484;0.026;2023-05-08T07:13:53;7.93;;;3.58;;
77417;SDS011;66490;51.484;0.026;2023-05-08T07:16:38;7.97;;;3.50;;
77417;SDS011;66490;51.484;0.026;2023-05-08T07:19:23;8.55;;;3.85;;
77417;SDS011;66490;51.484;0.026;2023-05-08T07:22:08;10.00;;;3.33;;
77417;SDS011;66490;51.484;0.026;2023-05-08T07:24:52;8.07;;;3.15;;
77417;SDS011;66490;51.484;0.026;2023-05-08T07:27:39;8.63;;;3.83;;
77417;SDS011;66490;51.484;0.026;2023-05-08T07:30:23;8.90;;;3.88;;
77417;SDS011;66490;51.484;0.026;2023-05-08T07:33:09;8.10;;;4.07;;
77417;SDS011;66490;51.484;0.026;2023-05-08T07:35:53;9.83;;;4.07;;
77417;SDS011;66490;51.484;0.026;2023-05-08T07:38:37;9.68;;;4.35;;
77417;SDS011;66490;51.484;0.026;2023-05-08T07:41:22;12.15;;;5.00;;
77417;SDS011;66490;51.484;0.026;2023-05-08T07:44:06;11.40;;;4.60;;
77417;SDS011;66490;51.484;0.026;2023-05-08T07:46:50;9.77;;;5.35;;
77417;SDS011;66490;51.484;0.026;2023-05-08T07:49:35;10.57;;;4.57;;
77417;SDS011;66490;51.484;0.026;2023-05-08T07:52:19;10.13;;;4.80;;
77417;SDS011;66490;51.484;0.026;2023-05-08T07:55:04;9.43;;;4.97;;
77417;SDS011;66490;51.484;0.026;2023-05-08T07:57:48;9.43;;;4.75;;
77417;SDS011;66490;51.484;0.026;2023-05-08T08:00:32;9.88;;;4.55;;
77417;SDS011;66490;51.484;0.026;2023-05-08T08:03:16;7.93;;;3.87;;
77417;SDS011;66490;51.484;0.026;2023-05-08T08:06:00;8.20;;;3.65;;
77417;SDS011;66490;51.484;0.026;2023-05-08T08:08:45;8.13;;;4.03;;
77417;SDS011;66490;51.484;0.026;2023-05-08T08:11:29;9.90;;;5.10;;
77417;SDS011;66490;51.484;0.026;2023-05-08T08:14:13;10.93;;;4.60;;
77417;SDS011;66490;51.484;0.026;2023-05-08T08:16:57;9.37;;;4.20;;
77417;SDS011;66490;51.484;0.026;2023-05-08T08:19:41;6.93;;;3.80;;
77417;SDS011;66490;51.484;0.026;2023-05-08T08:22:26;7.85;;;4.00;;
77417;SDS011;66490;51.484;0.026;2023-05-08T08:25:10;10.27;;;4.32;;
77417;SDS011;66490;51.484;0.026;2023-05-08T08:27:54;10.13;;;5.35;;
77417;SDS011;66490;51.484;0.026;2023-05-08T08:30:40;10.17;;;4.63;;
77417;SDS011;66490;51.484;0.026;2023-05-08T08:33:26;8.90;;;4.28;;
77417;SDS011;66490;51.484;0.026;2023-05-08T08:36:13;8.15;;;4.35;;
77417;SDS011;66490;51.484;0.026;2023-05-08T08:39:01;9.65;;;3.90;;
77417;SDS011;66490;51.484;0.026;2023-05-08T08:41:48;9.27;;;4.65;;
77417;SDS011;66490;51.484;0.026;2023-05-08T08:44:33;12.00;;;4.70;;
77417;SDS011;66490;51.484;0.026;2023-05-08T08:47:21;8.68;;;4.50;;
77417;SDS011;66490;51.484;0.026;2023-05-08T08:50:20;11.13;;;4.95;;
77417;SDS011;66490;51.484;0.026;2023-05-08T08:53:20;8.85;;;3.95;;
77417;SDS011;66490;51.484;0.026;2023-05-08T08:56:05;9.48;;;4.13;;
77417;SDS011;66490;51.484;0.026;2023-05-08T08:58:57;9.30;;;4.47;;
77417;SDS011;66490;51.484;0.026;2023-05-08T09:01:43;8.98;;;3.72;;
77417;SDS011;66490;51.484;0.026;2023-05-08T09:04:27;9.85;;;4.50;;
77417;SDS011;66490;51.484;0.026;2023-05-08T09:07:12;8.20;;;3.80;;
77417;SDS011;66490;51.484;0.026;2023-05-08T09:09:57;8.13;;;3.95;;
77417;SDS011;66490;51.484;0.026;2023-05-08T09:12:42;7.37;;;2.97;;
77417;SDS011;66490;51.484;0.026;2023-05-08T09:15:27;6.80;;;3.15;;
77417;SDS011;66490;51.484;0.026;2023-05-08T09:18:11;6.72;;;2.85;;
77417;SDS011;66490;51.484;0.026;2023-05-08T09:20:55;6.13;;;3.03;;
77417;SDS011;66490;51.484;0.026;2023-05-08T09:26:40;7.67;;;2.67;;
77417;SDS011;66490;51.484;0.026;2023-05-08T09:29:26;7.80;;;2.92;;
77417;SDS011;66490;51.484;0.026;2023-05-08T09:32:16;7.93;;;4.22;;
77417;SDS011;66490;51.484;0.026;2023-05-08T09:35:01;5.28;;;2.33;;
77417;SDS011;66490;51.484;0.026;2023-05-08T09:37:44;7.38;;;3.03;;
77417;SDS011;66490;51.484;0.026;2023-05-08T09:40:29;7.53;;;2.57;;
77417;SDS011;66490;51.484;0.026;2023-05-08T09:43:16;7.25;;;2.40;;
77417;SDS011;66490;51.484;0.026;2023-05-08T09:49:06;7.25;;;2.30;;
77417;SDS011;66490;51.484;0.026;2023-05-08T09:52:00;7.07;;;2.95;;
77417;SDS011;66490;51.484;0.026;2023-05-08T09:54:44;6.83;;;2.27;;
77417;SDS011;66490;51.484;0.026;2023-05-08T09:57:29;6.05;;;2.38;;
77417;SDS011;66490;51.484;0.026;2023-05-08T10:00:14;7.13;;;2.33;;
77417;SDS011;66490;51.484;0.026;2023-05-08T10:03:04;6.85;;;2.45;;
77417;SDS011;66490;51.484;0.026;2023-05-08T10:05:48;4.57;;;2.60;;
77417;SDS011;66490;51.484;0.026;2023-05-08T10:08:33;6.90;;;2.23;;
77417;SDS011;66490;51.484;0.026;2023-05-08T10:11:18;8.20;;;2.10;;
77417;SDS011;66490;51.484;0.026;2023-05-08T10:14:03;8.30;;;2.63;;
77417;SDS011;66490;51.484;0.026;2023-05-08T10:16:50;7.15;;;2.35;;
77417;SDS011;66490;51.484;0.026;2023-05-08T10:19:38;6.32;;;1.85;;
77417;SDS011;66490;51.484;0.026;2023-05-08T10:22:25;10.83;;;2.10;;
77417;SDS011;66490;51.484;0.026;2023-05-08T10:25:11;6.25;;;1.85;;
77417;SDS011;66490;51.484;0.026;2023-05-08T10:31:02;12.27;;;2.30;;
77417;SDS011;66490;51.484;0.026;2023-05-08T10:33:46;4.93;;;1.52;;
77417;SDS011;66490;51.484;0.026;2023-05-08T10:36:36;6.07;;;2.20;;
77417;SDS011;66490;51.484;0.026;2023-05-08T10:39:20;6.82;;;2.00;;
77417;SDS011;66490;51.484;0.026;2023-05-08T10:42:09;5.47;;;1.85;;
77417;SDS011;66490;51.484;0.026;2023-05-08T10:44:54;7.43;;;1.42;;
77417;SDS011;66490;51.484;0.026;2023-05-08T10:47:47;6.43;;;2.17;;
77417;SDS011;66490;51.484;0.026;2023-05-08T10:50:49;8.90;;;1.87;;
77417;SDS011;66490;51.484;0.026;2023-05-08T10:53:54;6.50;;;1.60;;
77417;SDS011;66490;51.484;0.026;2023-05-08T10:56:44;7.00;;;1.70;;
77417;SDS011;66490;51.484;0.026;2023-05-08T10:59:28;7.72;;;1.58;;
77417;SDS011;66490;51.484;0.026;2023-05-08T11:02:23;5.60;;;1.48;;
77417;SDS011;66490;51.484;0.026;2023-05-08T11:05:14;7.43;;;1.53;;
77417;SDS011;66490;51.484;0.026;2023-05-08T11:08:13;5.95;;;1.48;;
77417;SDS011;66490;51.484;0.026;2023-05-08T11:14:27;6.63;;;1.77;;
77417;SDS011;66490;51.484;0.026;2023-05-08T11:19:53;4.67;;;1.37;;
77417;SDS011;66490;51.484;0.026;2023-05-08T11:22:46;6.15;;;1.63;;
77417;SDS011;66490;51.484;0.026;2023-05-08T11:25:40;5.82;;;1.90;;
77417;SDS011;66490;51.484;0.026;2023-05-08T11:28:30;5.68;;;1.65;;
77417;SDS011;66490;51.484;0.026;2023-05-08T11:31:14;3.70;;;1.75;;
77417;SDS011;66490;51.484;0.026;2023-05-08T11:33:58;4.43;;;1.30;;
77417;SDS011;66490;51.484;0.026;2023-05-08T11:36:42;7.05;;;1.38;;
77417;SDS011;66490;51.484;0.026;2023-05-08T11:39:43;5.40;;;1.70;;
77417;SDS011;66490;51.484;0.026;2023-05-08T11:45:13;7.18;;;2.67;;
77417;SDS011;66490;51.484;0.026;2023-05-08T11:47:59;7.77;;;1.57;;
77417;SDS011;66490;51.484;0.026;2023-05-08T11:50:43;5.75;;;1.30;;
77417;SDS011;66490;51.484;0.026;2023-05-08T11:53:29;4.40;;;1.40;;
77417;SDS011;66490;51.484;0.026;2023-05-08T11:56:14;5.55;;;1.48;;
77417;SDS011;66490;51.484;0.026;2023-05-08T11:59:02;4.28;;;2.00;;
77417;SDS011;66490;51.484;0.026;2023-05-08T12:01:49;3.47;;;1.20;;
77417;SDS011;66490;51.484;0.026;2023-05-08T12:04:41;5.70;;;1.65;;
77417;SDS011;66490;51.484;0.026;2023-05-08T12:07:26;5.18;;;1.50;;
77417;SDS011;66490;51.484;0.026;2023-05-08T12:10:10;4.95;;;1.30;;
77417;SDS011;66490;51.484;0.026;2023-05-08T12:12:55;4.28;;;1.50;;
77417;SDS011;66490;51.484;0.026;2023-05-08T12:15:50;4.70;;;1.10;;
77417;SDS011;66490;51.484;0.026;2023-05-08T12:18:39;4.38;;;1.20;;
77417;SDS011;66490;51.484;0.026;2023-05-08T12:21:25;7.07;;;1.80;;
77417;SDS011;66490;51.484;0.026;2023-05-08T12:24:10;4.72;;;1.10;;
77417;SDS011;66490;51.484;0.026;2023-05-08T12:26:54;6.57;;;1.67;;
77417;SDS011;66490;51.484;0.026;2023-05-08T12:29:43;4.67;;;1.10;;
77417;SDS011;66490;51.484;0.026;2023-05-08T12:32:27;5.07;;;1.70;;
77417;SDS011;66490;51.484;0.026;2023-05-08T12:35:11;4.13;;;1.88;;
77417;SDS011;66490;51.484;0.026;2023-05-08T12:38:02;5.38;;;2.28;;
77417;SDS011;66490;51.484;0.026;2023-05-08T12:40:46;6.72;;;1.85;;
77417;SDS011;66490;51.484;0.026;2023-05-08T12:43:35;5.07;;;1.27;;
77417;SDS011;66490;51.484;0.026;2023-05-08T12:46:19;3.53;;;0.90;;
77417;SDS011;66490;51.484;0.026;2023-05-08T12:49:08;2.95;;;0.95;;
77417;SDS011;66490;51.484;0.026;2023-05-08T12:55:18;3.88;;;1.50;;
77417;SDS011;66490;51.484;0.026;2023-05-08T13:00:48;4.03;;;0.75;;
77417;SDS011;66490;51.484;0.026;2023-05-08T13:03:33;4.28;;;1.02;;
77417;SDS011;66490;51.484;0.026;2023-05-08T13:06:18;3.70;;;1.00;;
77417;SDS011;66490;51.484;0.026;2023-05-08T13:09:03;2.25;;;0.73;;
77417;SDS011;66490;51.484;0.026;2023-05-08T13:11:47;3.63;;;1.00;;
77417;SDS011;66490;51.484;0.026;2023-05-08T13:14:31;3.35;;;1.30;;
77417;SDS011;66490;51.484;0.026;2023-05-08T13:17:16;5.38;;;1.40;;
77417;SDS011;66490;51.484;0.026;2023-05-08T13:20:01;5.15;;;0.90;;
77417;SDS011;66490;51.484;0.026;2023-05-08T13:22:46;3.42;;;1.35;;
77417;SDS011;66490;51.484;0.026;2023-05-08T13:25:30;4.83;;;1.10;;
77417;SDS011;66490;51.484;0.026;2023-05-08T13:28:15;5.47;;;1.63;;
77417;SDS011;66490;51.484;0.026;2023-05-08T13:30:59;4.93;;;1.58;;
77417;SDS011;66490;51.484;0.026;2023-05-08T13:33:43;5.75;;;1.40;;
77417;SDS011;66490;51.484;0.026;2023-05-08T13:36:27;3.13;;;1.65;;
77417;SDS011;66490;51.484;0.026;2023-05-08T13:39:11;3.20;;;1.07;;
77417;SDS011;66490;51.484;0.026;2023-05-08T13:41:57;4.53;;;1.17;;
77417;SDS011;66490;51.484;0.026;2023-05-08T13:44:41;3.40;;;1.45;;
77417;SDS011;66490;51.484;0.026;2023-05-08T13:47:26;3.97;;;1.08;;
77417;SDS011;66490;51.484;0.026;2023-05-08T13:50:19;3.55;;;1.50;;
77417;SDS011;66490;51.484;0.026;2023-05-08T13:53:04;3.83;;;1.00;;
77417;SDS011;66490;51.484;0.026;2023-05-08T13:55:48;2.97;;;1.10;;
77417;SDS011;66490;51.484;0.026;2023-05-08T13:58:32;4.25;;;1.30;;
77417;SDS011;66490;51.484;0.026;2023-05-08T14:01:16;4.03;;;1.20;;
77417;SDS011;66490;51.484;0.026;2023-05-08T14:04:00;5.72;;;1.50;;
77417;SDS011;66490;51.484;0.026;2023-05-08T14:06:44;5.30;;;1.20;;
77417;SDS011;66490;51.484;0.026;2023-05-08T14:09:29;5.18;;;1.58;;
77417;SDS011;66490;51.484;0.026;2023-05-08T14:12:13;2.78;;;1.33;;
77417;SDS011;66490;51.484;0.026;2023-05-08T14:14:58;4.22;;;1.58;;
77417;SDS011;66490;51.484;0.026;2023-05-08T14:17:42;5.93;;;1.42;;
77417;SDS011;66490;51.484;0.026;2023-05-08T14:20:26;3.30;;;1.00;;
77417;SDS011;66490;51.484;0.026;2023-05-08T14:23:10;3.50;;;1.23;;
77417;SDS011;66490;51.484;0.026;2023-05-08T14:25:54;3.17;;;1.23;;
77417;SDS011;66490;51.484;0.026;2023-05-08T14:28:38;2.65;;;1.15;;
77417;SDS011;66490;51.484;0.026;2023-05-08T14:31:23;4.40;;;1.33;;
77417;SDS011;66490;51.484;0.026;2023-05-08T14:34:09;3.97;;;0.87;;
77417;SDS011;66490;51.484;0.026;2023-05-08T14:36:53;4.85;;;1.40;;
77417;SDS011;66490;51.484;0.026;2023-05-08T14:39:37;5.05;;;0.95;;
77417;SDS011;66490;51.484;0.026;2023-05-08T14:42:22;2.58;;;1.17;;
77417;SDS011;66490;51.484;0.026;2023-05-08T14:45:06;5.07;;;1.55;;
77417;SDS011;66490;51.484;0.026;2023-05-08T14:47:50;1.90;;;0.80;;
77417;SDS011;66490;51.484;0.026;2023-05-08T14:50:40;6.88;;;1.30;;
77417;SDS011;66490;51.484;0.026;2023-05-08T14:53:24;3.78;;;1.10;;
77417;SDS011;66490;51.484;0.026;2023-05-08T14:56:10;2.83;;;1.00;;
77417;SDS011;66490;51.484;0.026;2023-05-08T14:58:54;1.95;;;0.90;;
77417;SDS011;66490;51.484;0.026;2023-05-08T15:01:39;2.17;;;0.63;;
77417;SDS011;66490;51.484;0.026;2023-05-08T15:04:26;4.47;;;1.08;;
77417;SDS011;66490;51.484;0.026;2023-05-08T15:07:10;3.80;;;1.52;;
77417;SDS011;66490;51.484;0.026;2023-05-08T15:09:54;4.63;;;1.60;;
77417;SDS011;66490;51.484;0.026;2023-05-08T15:12:41;3.33;;;1.73;;
77417;SDS011;66490;51.484;0.026;2023-05-08T15:15:26;4.00;;;0.90;;
77417;SDS011;66490;51.484;0.026;2023-05-08T15:18:15;2.92;;;1.20;;
77417;SDS011;66490;51.484;0.026;2023-05-08T15:21:02;3.47;;;1.23;;
77417;SDS011;66490;51.484;0.026;2023-05-08T15:23:49;2.90;;;0.98;;
77417;SDS011;66490;51.484;0.026;2023-05-08T15:26:33;3.35;;;1.08;;
77417;SDS011;66490;51.484;0.026;2023-05-08T15:29:18;3.43;;;1.23;;
77417;SDS011;66490;51.484;0.026;2023-05-08T15:35:22;4.25;;;1.52;;
77417;SDS011;66490;51.484;0.026;2023-05-08T15:38:10;4.43;;;1.52;;
77417;SDS011;66490;51.484;0.026;2023-05-08T15:40:57;4.60;;;2.08;;
77417;SDS011;66490;51.484;0.026;2023-05-08T15:43:41;7.37;;;1.63;;
77417;SDS011;66490;51.484;0.026;2023-05-08T15:46:34;7.95;;;1.90;;
77417;SDS011;66490;51.484;0.026;2023-05-08T15:49:20;4.90;;;1.83;;
77417;SDS011;66490;51.484;0.026;2023-05-08T15:52:09;3.85;;;1.75;;
77417;SDS011;66490;51.484;0.026;2023-05-08T15:54:56;4.45;;;1.55;;
77417;SDS011;66490;51.484;0.026;2023-05-08T15:57:43;5.83;;;1.60;;
77417;SDS011;66490;51.484;0.026;2023-05-08T16:00:27;4.00;;;1.58;;
77417;SDS011;66490;51.484;0.026;2023-05-08T16:03:11;4.53;;;1.77;;
77417;SDS011;66490;51.484;0.026;2023-05-08T16:05:55;3.97;;;1.60;;
77417;SDS011;66490;51.484;0.026;2023-05-08T16:08:39;4.50;;;1.92;;
77417;SDS011;66490;51.484;0.026;2023-05-08T16:11:23;4.67;;;1.40;;
77417;SDS011;66490;51.484;0.026;2023-05-08T16:14:07;4.22;;;1.38;;
77417;SDS011;66490;51.484;0.026;2023-05-08T16:16:51;5.55;;;2.03;;
77417;SDS011;66490;51.484;0.026;2023-05-08T16:19:37;5.22;;;2.10;;
77417;SDS011;66490;51.484;0.026;2023-05-08T16:22:21;5.95;;;2.30;;
77417;SDS011;66490;51.484;0.026;2023-05-08T16:25:06;5.23;;;1.67;;
77417;SDS011;66490;51.484;0.026;2023-05-08T16:27:50;5.18;;;1.80;;
77417;SDS011;66490;51.484;0.026;2023-05-08T16:30:34;4.32;;;2.05;;
77417;SDS011;66490;51.484;0.026;2023-05-08T16:33:18;6.50;;;2.25;;
77417;SDS011;66490;51.484;0.026;2023-05-08T16:36:02;6.22;;;2.47;;
77417;SDS011;66490;51.484;0.026;2023-05-08T16:38:46;6.07;;;2.00;;
77417;SDS011;66490;51.484;0.026;2023-05-08T16:41:32;7.25;;;2.40;;
77417;SDS011;66490;51.484;0.026;2023-05-08T16:44:23;7.28;;;3.13;;
77417;SDS011;66490;51.484;0.026;2023-05-08T16:47:07;5.60;;;2.80;;
77417;SDS011;66490;51.484;0.026;2023-05-08T16:49:51;6.43;;;3.00;;
77417;SDS011;66490;51.484;0.026;2023-05-08T16:52:37;8.93;;;2.97;;
77417;SDS011;66490;51.484;0.026;2023-05-08T16:55:21;7.25;;;3.10;;
77417;SDS011;66490;51.484;0.026;2023-05-08T16:58:05;6.53;;;2.67;;
77417;SDS011;66490;51.484;0.026;2023-05-08T17:00:50;8.77;;;3.20;;
77417;SDS011;66490;51.484;0.026;2023-05-08T17:03:34;8.52;;;2.70;;
77417;SDS011;66490;51.484;0.026;2023-05-08T17:06:18;8.17;;;3.53;;
77417;SDS011;66490;51.484;0.026;2023-05-08T17:09:03;6.88;;;3.47;;
77417;SDS011;66490;51.484;0.026;2023-05-08T17:11:47;9.02;;;5.10;;
77417;SDS011;66490;51.484;0.026;2023-05-08T17:14:31;5.40;;;2.83;;
77417;SDS011;66490;51.484;0.026;2023-05-08T17:17:18;5.72;;;3.08;;
77417;SDS011;66490;51.484;0.026;2023-05-08T17:20:02;5.60;;;2.40;;
77417;SDS011;66490;51.484;0.026;2023-05-08T17:22:46;8.27;;;2.30;;